sensor_id;sensor_type;location;lat;lon;timestamp;pressure;altitude;pressure_sealevel;temperature;humidity
43770;BME280;6597;52.218;9.882;2023-01-01T00:01:05;100152.72;;;16.08;56.24
43770;BME280;6597;52.218;9.882;2023-01-01T00:03:32;100145.72;;;16.07;55.93
43770;BME280;6597;52.218;9.882;2023-01-01T00:05:58;100155.28;;;16.09;55.93
43770;BME280;6597;52.218;9.882;2023-01-01T00:08:25;100157.59;;;16.14;55.92
43770;BME280;6597;52.218;9.882;2023-01-01T00:10:51;100150.94;;;16.21;54.73
43770;BME280;6597;52.218;9.882;2023-01-01T00:13:18;100154.16;;;16.26;55.29
43770;BME280;6597;52.218;9.882;2023-01-01T00:15:46;100154.16;;;16.26;55.21
43770;BME280;6597;52.218;9.882;2023-01-01T00:18:12;100170.97;;;16.25;55.31
43770;BME280;6597;52.218;9.882;2023-01-01T00:20:39;100158.03;;;16.21;55.24
43770;BME280;6597;52.218;9.882;2023-01-01T00:23:05;100168.41;;;16.24;54.72
43770;BME280;6597;52.218;9.882;2023-01-01T00:25:32;100158.50;;;16.27;55.12
43770;BME280;6597;52.218;9.882;2023-01-01T00:27:58;100165.16;;;16.33;54.64
43770;BME280;6597;52.218;9.882;2023-01-01T00:30:25;100163.56;;;16.43;54.17
43770;BME280;6597;52.218;9.882;2023-01-01T00:32:53;100157.41;;;16.42;54.45
43770;BME280;6597;52.218;9.882;2023-01-01T00:35:19;100162.94;;;16.39;54.73
43770;BME280;6597;52.218;9.882;2023-01-01T00:37:46;100168.66;;;16.33;55.20
43770;BME280;6597;52.218;9.882;2023-01-01T00:40:12;100168.56;;;16.35;54.71
43770;BME280;6597;52.218;9.882;2023-01-01T00:42:39;100163.47;;;16.32;55.13
43770;BME280;6597;52.218;9.882;2023-01-01T00:45:07;100163.56;;;16.30;55.22
43770;BME280;6597;52.218;9.882;2023-01-01T00:47:33;100143.88;;;16.34;54.61
43770;BME280;6597;52.218;9.882;2023-01-01T00:50:02;100154.66;;;16.44;53.81
43770;BME280;6597;52.218;9.882;2023-01-01T00:52:28;100158.28;;;16.43;54.47
43770;BME280;6597;52.218;9.882;2023-01-01T00:54:55;100157.41;;;16.42;54.54
43770;BME280;6597;52.218;9.882;2023-01-01T00:57:21;100154.66;;;16.44;54.49
43770;BME280;6597;52.218;9.882;2023-01-01T00:59:48;100157.53;;;16.41;54.75
43770;BME280;6597;52.218;9.882;2023-01-01T01:02:14;100160.41;;;16.38;54.58
43770;BME280;6597;52.218;9.882;2023-01-01T01:04:41;100150.66;;;16.38;54.54
43770;BME280;6597;52.218;9.882;2023-01-01T01:07:09;100147.25;;;16.36;55.40
43770;BME280;6597;52.218;9.882;2023-01-01T01:09:35;100152.97;;;16.30;55.42
43770;BME280;6597;52.218;9.882;2023-01-01T01:12:02;100152.13;;;16.30;54.70
43770;BME280;6597;52.218;9.882;2023-01-01T01:14:28;100153.72;;;16.32;55.57
43770;BME280;6597;52.218;9.882;2023-01-01T01:16:56;100157.44;;;16.30;55.89
43770;BME280;6597;52.218;9.882;2023-01-01T01:19:23;100176.81;;;16.30;55.73
43770;BME280;6597;52.218;9.882;2023-01-01T01:21:50;100168.44;;;16.36;55.01
43770;BME280;6597;52.218;9.882;2023-01-01T01:24:18;100183.50;;;16.36;55.38
43770;BME280;6597;52.218;9.882;2023-01-01T01:26:45;100172.06;;;16.35;55.00
43770;BME280;6597;52.218;9.882;2023-01-01T01:29:11;100173.00;;;16.34;54.21
43770;BME280;6597;52.218;9.882;2023-01-01T01:31:38;100175.22;;;16.40;55.39
43770;BME280;6597;52.218;9.882;2023-01-01T01:34:04;100178.19;;;16.36;54.73
43770;BME280;6597;52.218;9.882;2023-01-01T01:36:31;100184.66;;;16.32;55.55
43770;BME280;6597;52.218;9.882;2023-01-01T01:38:57;100193.66;;;16.29;54.86
43770;BME280;6597;52.218;9.882;2023-01-01T01:41:26;100193.66;;;16.42;54.20
43770;BME280;6597;52.218;9.882;2023-01-01T01:43:55;100201.09;;;16.37;54.99
43770;BME280;6597;52.218;9.882;2023-01-01T01:46:26;100187.50;;;16.29;54.14
43770;BME280;6597;52.218;9.882;2023-01-01T01:48:55;100195.25;;;16.32;54.33
43770;BME280;6597;52.218;9.882;2023-01-01T01:51:27;100178.72;;;16.28;54.18
43770;BME280;6597;52.218;9.882;2023-01-01T01:53:57;100204.25;;;16.29;54.62
43770;BME280;6597;52.218;9.882;2023-01-01T01:56:29;100189.22;;;16.30;54.22
43770;BME280;6597;52.218;9.882;2023-01-01T01:58:57;100180.53;;;16.28;54.69
43770;BME280;6597;52.218;9.882;2023-01-01T02:01:24;100184.31;;;16.24;54.33
43770;BME280;6597;52.218;9.882;2023-01-01T02:03:55;100174.66;;;16.23;54.20
43770;BME280;6597;52.218;9.882;2023-01-01T02:06:23;100194.56;;;16.15;54.72
43770;BME280;6597;52.218;9.882;2023-01-01T02:08:50;100175.41;;;16.12;54.21
43770;BME280;6597;52.218;9.882;2023-01-01T02:11:17;100188.09;;;16.07;54.76
43770;BME280;6597;52.218;9.882;2023-01-01T02:13:45;100184.28;;;15.98;55.13
43770;BME280;6597;52.218;9.882;2023-01-01T02:16:18;100185.22;;;15.97;54.55
43770;BME280;6597;52.218;9.882;2023-01-01T02:18:51;100194.22;;;15.95;55.21
43770;BME280;6597;52.218;9.882;2023-01-01T02:21:25;100184.47;;;15.95;54.57
43770;BME280;6597;52.218;9.882;2023-01-01T02:26:50;100185.22;;;15.97;54.58
43770;BME280;6597;52.218;9.882;2023-01-01T02:29:38;100213.88;;;15.91;54.29
43770;BME280;6597;52.218;9.882;2023-01-01T02:32:09;100211.53;;;15.86;55.05
43770;BME280;6597;52.218;9.882;2023-01-01T02:34:39;100213.72;;;15.79;54.36
43770;BME280;6597;52.218;9.882;2023-01-01T02:37:09;100215.03;;;15.86;54.60
43770;BME280;6597;52.218;9.882;2023-01-01T02:39:41;100210.09;;;15.95;54.48
43770;BME280;6597;52.218;9.882;2023-01-01T02:42:11;100209.31;;;15.93;54.30
43770;BME280;6597;52.218;9.882;2023-01-01T02:44:41;100216.88;;;15.99;53.44
43770;BME280;6597;52.218;9.882;2023-01-01T02:47:12;100201.97;;;15.98;53.91
43770;BME280;6597;52.218;9.882;2023-01-01T02:49:45;100205.34;;;16.00;53.34
43770;BME280;6597;52.218;9.882;2023-01-01T02:52:24;100208.84;;;16.00;54.03
43770;BME280;6597;52.218;9.882;2023-01-01T02:55:03;100215.41;;;15.95;53.30
43770;BME280;6597;52.218;9.882;2023-01-01T02:57:35;100217.19;;;15.94;54.37
43770;BME280;6597;52.218;9.882;2023-01-01T03:00:09;100223.50;;;15.92;53.89
43770;BME280;6597;52.218;9.882;2023-01-01T03:03:06;100231.22;;;15.82;54.49
43770;BME280;6597;52.218;9.882;2023-01-01T03:05:40;100223.97;;;15.71;55.24
43770;BME280;6597;52.218;9.882;2023-01-01T03:08:29;100227.66;;;15.54;57.30
43770;BME280;6597;52.218;9.882;2023-01-01T03:11:02;100223.91;;;15.44;57.43
43770;BME280;6597;52.218;9.882;2023-01-01T03:13:35;100219.13;;;15.37;56.79
43770;BME280;6597;52.218;9.882;2023-01-01T03:16:09;100221.00;;;15.35;56.65
43770;BME280;6597;52.218;9.882;2023-01-01T03:18:42;100227.72;;;15.40;56.53
43770;BME280;6597;52.218;9.882;2023-01-01T03:21:12;100230.53;;;15.37;57.11
43770;BME280;6597;52.218;9.882;2023-01-01T03:23:46;100235.94;;;15.36;56.92
43770;BME280;6597;52.218;9.882;2023-01-01T03:26:16;100230.25;;;15.27;57.44
43770;BME280;6597;52.218;9.882;2023-01-01T03:28:47;100220.72;;;15.25;56.65
43770;BME280;6597;52.218;9.882;2023-01-01T03:31:19;100229.78;;;15.21;56.96
43770;BME280;6597;52.218;9.882;2023-01-01T03:33:50;100240.28;;;15.22;57.05
43770;BME280;6597;52.218;9.882;2023-01-01T03:36:20;100233.84;;;15.26;56.10
43770;BME280;6597;52.218;9.882;2023-01-01T03:38:51;100226.97;;;15.24;56.31
43770;BME280;6597;52.218;9.882;2023-01-01T03:41:24;100229.88;;;15.19;56.75
43770;BME280;6597;52.218;9.882;2023-01-01T03:43:58;100228.59;;;15.12;56.63
43770;BME280;6597;52.218;9.882;2023-01-01T03:46:32;100236.59;;;15.11;56.38
43770;BME280;6597;52.218;9.882;2023-01-01T03:49:01;100236.06;;;15.06;56.51
43770;BME280;6597;52.218;9.882;2023-01-01T03:51:44;100241.44;;;15.04;56.24
43770;BME280;6597;52.218;9.882;2023-01-01T03:54:25;100232.66;;;15.04;55.94
43770;BME280;6597;52.218;9.882;2023-01-01T03:56:59;100236.16;;;15.04;55.50
43770;BME280;6597;52.218;9.882;2023-01-01T03:59:33;100238.59;;;15.07;55.02
43770;BME280;6597;52.218;9.882;2023-01-01T04:02:06;100225.28;;;15.09;55.56
43770;BME280;6597;52.218;9.882;2023-01-01T04:04:33;100239.53;;;15.06;55.49
43770;BME280;6597;52.218;9.882;2023-01-01T04:07:01;100230.94;;;15.03;55.57
43770;BME280;6597;52.218;9.882;2023-01-01T04:09:29;100243.78;;;15.09;54.34
43770;BME280;6597;52.218;9.882;2023-01-01T04:11:57;100242.84;;;15.10;54.94
43770;BME280;6597;52.218;9.882;2023-01-01T04:14:30;100248.31;;;15.07;55.86
43770;BME280;6597;52.218;9.882;2023-01-01T04:16:58;100249.56;;;15.01;55.71
43770;BME280;6597;52.218;9.882;2023-01-01T04:19:27;100253.41;;;14.95;56.14
43770;BME280;6597;52.218;9.882;2023-01-01T04:21:53;100259.06;;;14.89;56.50
43770;BME280;6597;52.218;9.882;2023-01-01T04:24:20;100255.56;;;14.89;56.46
43770;BME280;6597;52.218;9.882;2023-01-01T04:26:47;100255.94;;;14.83;56.77
43770;BME280;6597;52.218;9.882;2023-01-01T04:29:14;100258.03;;;14.78;57.36
43770;BME280;6597;52.218;9.882;2023-01-01T04:31:40;100251.88;;;14.77;56.28
43770;BME280;6597;52.218;9.882;2023-01-01T04:34:07;100263.13;;;14.81;56.53
43770;BME280;6597;52.218;9.882;2023-01-01T04:36:35;100253.28;;;14.69;56.81
43770;BME280;6597;52.218;9.882;2023-01-01T04:39:02;100271.78;;;14.69;57.62
43770;BME280;6597;52.218;9.882;2023-01-01T04:41:29;100264.47;;;14.58;58.01
43770;BME280;6597;52.218;9.882;2023-01-01T04:43:56;100269.19;;;14.53;57.67
43770;BME280;6597;52.218;9.882;2023-01-01T04:46:23;100280.41;;;14.56;57.03
43770;BME280;6597;52.218;9.882;2023-01-01T04:48:49;100264.38;;;14.59;56.76
43770;BME280;6597;52.218;9.882;2023-01-01T04:51:17;100270.28;;;14.65;55.84
43770;BME280;6597;52.218;9.882;2023-01-01T04:53:46;100269.72;;;14.74;56.11
43770;BME280;6597;52.218;9.882;2023-01-01T04:56:15;100283.13;;;14.71;57.21
43770;BME280;6597;52.218;9.882;2023-01-01T04:58:42;100282.34;;;14.69;56.30
43770;BME280;6597;52.218;9.882;2023-01-01T05:01:14;100281.41;;;14.70;56.87
43770;BME280;6597;52.218;9.882;2023-01-01T05:03:41;100288.41;;;14.71;55.95
43770;BME280;6597;52.218;9.882;2023-01-01T05:06:09;100287.09;;;14.78;55.50
43770;BME280;6597;52.218;9.882;2023-01-01T05:08:38;100294.16;;;14.77;55.94
43770;BME280;6597;52.218;9.882;2023-01-01T05:11:08;100285.28;;;14.78;56.12
43770;BME280;6597;52.218;9.882;2023-01-01T05:13:37;100287.19;;;14.76;55.62
43770;BME280;6597;52.218;9.882;2023-01-01T05:16:06;100289.34;;;14.84;55.62
43770;BME280;6597;52.218;9.882;2023-01-01T05:18:33;100307.28;;;14.79;55.43
43770;BME280;6597;52.218;9.882;2023-01-01T05:21:00;100307.56;;;14.88;55.51
43770;BME280;6597;52.218;9.882;2023-01-01T05:23:27;100306.81;;;14.86;56.08
43770;BME280;6597;52.218;9.882;2023-01-01T05:25:54;100312.66;;;14.77;56.45
43770;BME280;6597;52.218;9.882;2023-01-01T05:28:22;100315.38;;;14.76;56.38
43770;BME280;6597;52.218;9.882;2023-01-01T05:30:52;100310.00;;;14.77;55.68
43770;BME280;6597;52.218;9.882;2023-01-01T05:33:19;100311.63;;;14.80;56.14
43770;BME280;6597;52.218;9.882;2023-01-01T05:35:52;100320.50;;;14.79;56.59
43770;BME280;6597;52.218;9.882;2023-01-01T05:38:18;100326.81;;;14.76;56.92
43770;BME280;6597;52.218;9.882;2023-01-01T05:40:45;100315.22;;;14.79;56.23
43770;BME280;6597;52.218;9.882;2023-01-01T05:43:11;100314.44;;;14.77;56.76
43770;BME280;6597;52.218;9.882;2023-01-01T05:45:39;100304.81;;;14.76;56.71
43770;BME280;6597;52.218;9.882;2023-01-01T05:48:06;100325.78;;;14.79;56.67
43770;BME280;6597;52.218;9.882;2023-01-01T05:50:32;100332.28;;;14.73;57.15
43770;BME280;6597;52.218;9.882;2023-01-01T05:53:00;100323.88;;;14.67;57.41
43770;BME280;6597;52.218;9.882;2023-01-01T05:55:27;100326.69;;;14.63;57.55
43770;BME280;6597;52.218;9.882;2023-01-01T05:57:54;100333.25;;;14.56;57.49
43770;BME280;6597;52.218;9.882;2023-01-01T06:00:20;100331.47;;;14.57;57.53
43770;BME280;6597;52.218;9.882;2023-01-01T06:02:48;100331.38;;;14.58;57.79
43770;BME280;6597;52.218;9.882;2023-01-01T06:05:15;100339.56;;;14.54;58.62
43770;BME280;6597;52.218;9.882;2023-01-01T06:07:42;100341.09;;;14.58;57.09
43770;BME280;6597;52.218;9.882;2023-01-01T06:10:09;100342.53;;;14.63;56.92
43770;BME280;6597;52.218;9.882;2023-01-01T06:12:35;100354.97;;;14.61;57.41
43770;BME280;6597;52.218;9.882;2023-01-01T06:15:02;100361.09;;;14.62;56.90
43770;BME280;6597;52.218;9.882;2023-01-01T06:17:28;100363.75;;;14.62;57.13
43770;BME280;6597;52.218;9.882;2023-01-01T06:19:57;100363.50;;;14.67;56.83
43770;BME280;6597;52.218;9.882;2023-01-01T06:22:24;100366.13;;;14.67;57.21
43770;BME280;6597;52.218;9.882;2023-01-01T06:24:50;100355.66;;;14.65;57.32
43770;BME280;6597;52.218;9.882;2023-01-01T06:27:17;100348.69;;;14.64;57.21
43770;BME280;6597;52.218;9.882;2023-01-01T06:29:43;100345.50;;;14.57;57.09
43770;BME280;6597;52.218;9.882;2023-01-01T06:32:10;100362.75;;;14.49;57.56
43770;BME280;6597;52.218;9.882;2023-01-01T06:34:36;100351.44;;;14.47;57.33
43770;BME280;6597;52.218;9.882;2023-01-01T06:37:04;100368.31;;;14.44;57.57
43770;BME280;6597;52.218;9.882;2023-01-01T06:39:31;100375.59;;;14.39;57.88
43770;BME280;6597;52.218;9.882;2023-01-01T06:41:57;100372.47;;;14.32;58.48
43770;BME280;6597;52.218;9.882;2023-01-01T06:44:24;100379.84;;;14.26;58.89
43770;BME280;6597;52.218;9.882;2023-01-01T06:46:50;100387.63;;;14.13;59.39
43770;BME280;6597;52.218;9.882;2023-01-01T06:49:17;100385.16;;;14.10;59.86
43770;BME280;6597;52.218;9.882;2023-01-01T06:51:43;100385.25;;;14.09;59.89
43770;BME280;6597;52.218;9.882;2023-01-01T06:54:11;100392.06;;;14.13;59.72
43770;BME280;6597;52.218;9.882;2023-01-01T06:56:38;100392.81;;;14.15;59.65
43770;BME280;6597;52.218;9.882;2023-01-01T06:59:04;100403.13;;;14.19;60.12
43770;BME280;6597;52.218;9.882;2023-01-01T07:01:32;100390.94;;;14.17;60.62
43770;BME280;6597;52.218;9.882;2023-01-01T07:04:01;100394.69;;;14.13;61.18
43770;BME280;6597;52.218;9.882;2023-01-01T07:06:29;100415.38;;;14.05;61.27
43770;BME280;6597;52.218;9.882;2023-01-01T07:08:56;100406.88;;;13.99;62.24
43770;BME280;6597;52.218;9.882;2023-01-01T07:11:28;100416.63;;;13.97;61.67
43770;BME280;6597;52.218;9.882;2023-01-01T07:13:55;100433.31;;;13.98;61.64
43770;BME280;6597;52.218;9.882;2023-01-01T07:16:22;100427.91;;;14.01;61.06
43770;BME280;6597;52.218;9.882;2023-01-01T07:18:49;100440.06;;;14.04;61.77
43770;BME280;6597;52.218;9.882;2023-01-01T07:21:29;100431.41;;;14.01;61.58
43770;BME280;6597;52.218;9.882;2023-01-01T07:23:57;100420.84;;;14.01;61.71
43770;BME280;6597;52.218;9.882;2023-01-01T07:26:24;100423.66;;;13.98;62.48
43770;BME280;6597;52.218;9.882;2023-01-01T07:28:53;100433.41;;;13.96;62.57
43770;BME280;6597;52.218;9.882;2023-01-01T07:31:20;100449.56;;;13.90;62.92
43770;BME280;6597;52.218;9.882;2023-01-01T07:33:46;100461.16;;;13.88;63.02
43770;BME280;6597;52.218;9.882;2023-01-01T07:36:15;100473.56;;;13.86;63.76
43770;BME280;6597;52.218;9.882;2023-01-01T07:38:41;100470.75;;;13.89;64.47
43770;BME280;6597;52.218;9.882;2023-01-01T07:41:08;100472.13;;;13.80;64.62
43770;BME280;6597;52.218;9.882;2023-01-01T07:43:34;100488.09;;;13.77;64.54
43770;BME280;6597;52.218;9.882;2023-01-01T07:46:03;100484.78;;;13.74;65.73
43770;BME280;6597;52.218;9.882;2023-01-01T07:48:29;100489.44;;;13.68;66.06
43770;BME280;6597;52.218;9.882;2023-01-01T07:50:56;100480.34;;;13.74;64.68
43770;BME280;6597;52.218;9.882;2023-01-01T07:53:22;100499.25;;;13.82;64.37
43770;BME280;6597;52.218;9.882;2023-01-01T07:55:49;100499.78;;;13.89;64.04
43770;BME280;6597;52.218;9.882;2023-01-01T07:58:16;100511.03;;;13.92;64.39
43770;BME280;6597;52.218;9.882;2023-01-01T08:00:45;100515.53;;;13.90;64.07
43770;BME280;6597;52.218;9.882;2023-01-01T08:03:13;100521.28;;;13.98;63.58
43770;BME280;6597;52.218;9.882;2023-01-01T08:05:39;100520.97;;;14.05;63.17
43770;BME280;6597;52.218;9.882;2023-01-01T08:08:07;100504.09;;;14.07;63.01
43770;BME280;6597;52.218;9.882;2023-01-01T08:10:35;100509.13;;;14.12;63.45
43770;BME280;6597;52.218;9.882;2023-01-01T08:13:03;100496.72;;;14.14;63.13
43770;BME280;6597;52.218;9.882;2023-01-01T08:15:30;100512.22;;;14.20;62.03
43770;BME280;6597;52.218;9.882;2023-01-01T08:17:57;100503.00;;;14.27;62.48
43770;BME280;6597;52.218;9.882;2023-01-01T08:20:27;100511.69;;;14.29;62.78
43770;BME280;6597;52.218;9.882;2023-01-01T08:22:54;100525.06;;;14.26;62.59
43770;BME280;6597;52.218;9.882;2023-01-01T08:25:20;100532.53;;;14.35;61.26
43770;BME280;6597;52.218;9.882;2023-01-01T08:27:47;100528.00;;;14.37;61.19
43770;BME280;6597;52.218;9.882;2023-01-01T08:30:14;100527.16;;;14.37;61.82
43770;BME280;6597;52.218;9.882;2023-01-01T08:32:41;100528.94;;;14.36;61.80
43770;BME280;6597;52.218;9.882;2023-01-01T08:35:08;100536.00;;;14.36;62.20
43770;BME280;6597;52.218;9.882;2023-01-01T08:37:36;100545.72;;;14.35;61.78
43770;BME280;6597;52.218;9.882;2023-01-01T08:40:03;100545.63;;;14.37;61.66
43770;BME280;6597;52.218;9.882;2023-01-01T08:42:30;100532.44;;;14.37;61.57
43770;BME280;6597;52.218;9.882;2023-01-01T08:44:57;100543.84;;;14.37;61.59
43770;BME280;6597;52.218;9.882;2023-01-01T08:47:25;100540.09;;;14.41;60.97
43770;BME280;6597;52.218;9.882;2023-01-01T08:49:52;100544.44;;;14.42;61.47
43770;BME280;6597;52.218;9.882;2023-01-01T08:52:19;100543.69;;;14.40;61.81
43770;BME280;6597;52.218;9.882;2023-01-01T08:54:47;100550.06;;;14.36;62.65
43770;BME280;6597;52.218;9.882;2023-01-01T08:57:14;100563.34;;;14.35;62.17
43770;BME280;6597;52.218;9.882;2023-01-01T08:59:41;100555.06;;;14.25;62.73
43770;BME280;6597;52.218;9.882;2023-01-01T09:02:09;100572.28;;;14.32;62.35
43770;BME280;6597;52.218;9.882;2023-01-01T09:04:36;100575.88;;;14.31;63.11
43770;BME280;6597;52.218;9.882;2023-01-01T09:07:03;100577.56;;;14.32;62.82
43770;BME280;6597;52.218;9.882;2023-01-01T09:09:29;100592.41;;;14.35;63.65
43770;BME280;6597;52.218;9.882;2023-01-01T09:11:58;100592.63;;;14.30;62.99
43770;BME280;6597;52.218;9.882;2023-01-01T09:14:30;100608.41;;;14.31;62.89
43770;BME280;6597;52.218;9.882;2023-01-01T09:16:57;100608.47;;;14.30;62.92
43770;BME280;6597;52.218;9.882;2023-01-01T09:19:23;100617.19;;;14.32;62.65
43770;BME280;6597;52.218;9.882;2023-01-01T09:21:50;100607.22;;;14.37;62.08
43770;BME280;6597;52.218;9.882;2023-01-01T09:24:17;100619.34;;;14.41;62.31
43770;BME280;6597;52.218;9.882;2023-01-01T09:26:44;100617.50;;;14.43;62.51
43770;BME280;6597;52.218;9.882;2023-01-01T09:29:12;100608.78;;;14.41;62.71
43770;BME280;6597;52.218;9.882;2023-01-01T09:31:42;100607.84;;;14.42;62.21
43770;BME280;6597;52.218;9.882;2023-01-01T09:34:09;100621.50;;;14.50;61.79
43770;BME280;6597;52.218;9.882;2023-01-01T09:36:36;100630.13;;;14.54;62.56
43770;BME280;6597;52.218;9.882;2023-01-01T09:39:02;100632.75;;;14.54;63.09
43770;BME280;6597;52.218;9.882;2023-01-01T09:41:40;100645.88;;;14.55;62.73
43770;BME280;6597;52.218;9.882;2023-01-01T09:44:19;100644.19;;;14.54;62.61
43770;BME280;6597;52.218;9.882;2023-01-01T09:46:46;100654.13;;;14.49;62.78
43770;BME280;6597;52.218;9.882;2023-01-01T09:49:16;100652.25;;;14.51;63.05
43770;BME280;6597;52.218;9.882;2023-01-01T09:51:50;100662.16;;;14.48;63.32
43770;BME280;6597;52.218;9.882;2023-01-01T09:54:25;100667.59;;;14.45;63.41
43770;BME280;6597;52.218;9.882;2023-01-01T09:56:55;100670.44;;;14.40;63.80
43770;BME280;6597;52.218;9.882;2023-01-01T09:59:24;100666.88;;;14.41;63.51
43770;BME280;6597;52.218;9.882;2023-01-01T10:01:56;100668.53;;;14.44;63.99
43770;BME280;6597;52.218;9.882;2023-01-01T10:04:36;100686.06;;;14.45;64.17
43770;BME280;6597;52.218;9.882;2023-01-01T10:07:14;100690.72;;;14.40;64.73
43770;BME280;6597;52.218;9.882;2023-01-01T10:09:50;100701.59;;;14.33;66.35
43770;BME280;6597;52.218;9.882;2023-01-01T10:12:24;100707.66;;;14.18;69.82
43770;BME280;6597;52.218;9.882;2023-01-01T10:14:57;100706.31;;;13.92;73.03
43770;BME280;6597;52.218;9.882;2023-01-01T10:17:32;100705.81;;;13.67;75.54
43770;BME280;6597;52.218;9.882;2023-01-01T10:20:02;100699.72;;;13.48;77.50
43770;BME280;6597;52.218;9.882;2023-01-01T10:22:32;100708.34;;;13.32;78.25
43770;BME280;6597;52.218;9.882;2023-01-01T10:25:03;100713.91;;;13.26;79.10
43770;BME280;6597;52.218;9.882;2023-01-01T10:27:34;100710.72;;;13.20;79.86
43770;BME280;6597;52.218;9.882;2023-01-01T10:30:12;100711.81;;;13.14;79.92
43770;BME280;6597;52.218;9.882;2023-01-01T10:32:40;100693.72;;;13.06;80.63
43770;BME280;6597;52.218;9.882;2023-01-01T10:35:12;100709.25;;;13.13;81.04
43770;BME280;6597;52.218;9.882;2023-01-01T10:37:40;100712.09;;;13.08;81.89
43770;BME280;6597;52.218;9.882;2023-01-01T10:40:14;100726.22;;;13.07;82.26
43770;BME280;6597;52.218;9.882;2023-01-01T10:42:47;100730.63;;;13.06;83.22
43770;BME280;6597;52.218;9.882;2023-01-01T10:45:17;100728.22;;;13.02;83.23
43770;BME280;6597;52.218;9.882;2023-01-01T10:48:13;100742.25;;;13.02;83.62
43770;BME280;6597;52.218;9.882;2023-01-01T10:50:42;100742.16;;;13.04;84.47
43770;BME280;6597;52.218;9.882;2023-01-01T10:53:19;100732.72;;;12.98;84.62
43770;BME280;6597;52.218;9.882;2023-01-01T10:55:48;100744.13;;;12.99;84.88
43770;BME280;6597;52.218;9.882;2023-01-01T10:58:25;100760.75;;;13.01;85.68
43770;BME280;6597;52.218;9.882;2023-01-01T11:01:01;100774.97;;;12.97;84.56
43770;BME280;6597;52.218;9.882;2023-01-01T11:03:28;100771.69;;;12.92;85.24
43770;BME280;6597;52.218;9.882;2023-01-01T11:06:09;100783.41;;;12.85;86.71
43770;BME280;6597;52.218;9.882;2023-01-01T11:08:40;100793.31;;;12.80;86.72
43770;BME280;6597;52.218;9.882;2023-01-01T11:11:19;100780.41;;;12.73;88.48
43770;BME280;6597;52.218;9.882;2023-01-01T11:13:49;100786.31;;;12.58;90.48
43770;BME280;6597;52.218;9.882;2023-01-01T11:16:18;100784.09;;;12.49;91.62
43770;BME280;6597;52.218;9.882;2023-01-01T11:18:46;100777.38;;;12.42;93.60
43770;BME280;6597;52.218;9.882;2023-01-01T11:21:19;100769.63;;;12.39;94.60
43770;BME280;6597;52.218;9.882;2023-01-01T11:23:48;100763.44;;;12.40;96.24
43770;BME280;6597;52.218;9.882;2023-01-01T11:26:20;100759.03;;;12.40;96.39
43770;BME280;6597;52.218;9.882;2023-01-01T11:29:00;100761.84;;;12.36;96.84
43770;BME280;6597;52.218;9.882;2023-01-01T11:31:29;100743.28;;;12.39;96.00
43770;BME280;6597;52.218;9.882;2023-01-01T11:33:59;100739.72;;;12.40;96.11
43770;BME280;6597;52.218;9.882;2023-01-01T11:36:28;100743.88;;;12.45;96.16
43770;BME280;6597;52.218;9.882;2023-01-01T11:39:05;100742.31;;;12.41;95.92
43770;BME280;6597;52.218;9.882;2023-01-01T11:41:41;100734.34;;;12.43;94.34
43770;BME280;6597;52.218;9.882;2023-01-01T11:44:09;100726.94;;;12.51;93.18
43770;BME280;6597;52.218;9.882;2023-01-01T11:46:39;100713.13;;;12.46;92.64
43770;BME280;6597;52.218;9.882;2023-01-01T11:49:12;100708.53;;;12.51;92.30
43770;BME280;6597;52.218;9.882;2023-01-01T11:51:40;100707.38;;;12.57;91.13
43770;BME280;6597;52.218;9.882;2023-01-01T11:54:10;100711.03;;;12.54;90.85
43770;BME280;6597;52.218;9.882;2023-01-01T11:56:37;100710.94;;;12.56;91.05
43770;BME280;6597;52.218;9.882;2023-01-01T11:59:11;100702.75;;;12.43;90.19
43770;BME280;6597;52.218;9.882;2023-01-01T12:01:43;100707.22;;;12.41;89.93
43770;BME280;6597;52.218;9.882;2023-01-01T12:04:17;100708.44;;;12.32;90.07
43770;BME280;6597;52.218;9.882;2023-01-01T12:06:49;100710.50;;;12.26;90.21
43770;BME280;6597;52.218;9.882;2023-01-01T12:09:21;100706.47;;;12.17;90.97
43770;BME280;6597;52.218;9.882;2023-01-01T12:11:51;100720.75;;;12.11;91.21
43770;BME280;6597;52.218;9.882;2023-01-01T12:14:24;100723.53;;;12.08;91.79
43770;BME280;6597;52.218;9.882;2023-01-01T12:16:58;100726.38;;;12.02;91.74
43770;BME280;6597;52.218;9.882;2023-01-01T12:19:30;100731.66;;;12.02;92.49
43770;BME280;6597;52.218;9.882;2023-01-01T12:21:59;100725.50;;;12.03;92.57
43770;BME280;6597;52.218;9.882;2023-01-01T12:24:31;100739.59;;;12.01;92.14
43770;BME280;6597;52.218;9.882;2023-01-01T12:27:15;100757.16;;;12.00;92.34
43770;BME280;6597;52.218;9.882;2023-01-01T12:29:59;100758.88;;;12.01;92.58
43770;BME280;6597;52.218;9.882;2023-01-01T12:32:37;100763.47;;;11.96;92.62
43770;BME280;6597;52.218;9.882;2023-01-01T12:35:12;100767.81;;;11.97;92.70
43770;BME280;6597;52.218;9.882;2023-01-01T12:37:53;100769.47;;;12.00;92.69
43770;BME280;6597;52.218;9.882;2023-01-01T12:40:32;100774.59;;;12.03;92.86
43770;BME280;6597;52.218;9.882;2023-01-01T12:43:01;100769.31;;;12.04;92.66
43770;BME280;6597;52.218;9.882;2023-01-01T12:45:39;100775.41;;;12.05;92.25
43770;BME280;6597;52.218;9.882;2023-01-01T12:48:27;100786.53;;;12.11;92.38
43770;BME280;6597;52.218;9.882;2023-01-01T12:51:00;100781.28;;;12.11;92.05
43770;BME280;6597;52.218;9.882;2023-01-01T12:53:35;100778.47;;;12.16;92.47
43770;BME280;6597;52.218;9.882;2023-01-01T12:56:12;100780.78;;;12.24;92.06
43770;BME280;6597;52.218;9.882;2023-01-01T12:58:43;100781.34;;;12.30;91.15
43770;BME280;6597;52.218;9.882;2023-01-01T13:01:13;100787.25;;;12.37;91.18
43770;BME280;6597;52.218;9.882;2023-01-01T13:03:48;100772.91;;;12.44;91.20
43770;BME280;6597;52.218;9.882;2023-01-01T13:06:19;100772.63;;;12.50;90.53
43770;BME280;6597;52.218;9.882;2023-01-01T13:08:49;100768.16;;;12.52;90.12
43770;BME280;6597;52.218;9.882;2023-01-01T13:11:21;100760.00;;;12.58;90.65
43770;BME280;6597;52.218;9.882;2023-01-01T13:13:51;100759.78;;;12.63;89.59
43770;BME280;6597;52.218;9.882;2023-01-01T13:16:31;100762.09;;;12.70;90.38